sensor_id;sensor_type;location;lat;lon;timestamp;temperature;humidity
70820;DHT22;58439;51.046;13.692;2023-06-10T00:02:05;19.60;99.90
70820;DHT22;58439;51.046;13.692;2023-06-10T00:04:32;19.60;99.90
70820;DHT22;58439;51.046;13.692;2023-06-10T00:07:00;19.60;99.90
70820;DHT22;58439;51.046;13.692;2023-06-10T00:09:33;19.60;99.90
70820;DHT22;58439;51.046;13.692;2023-06-10T00:12:08;19.70;99.90
70820;DHT22;58439;51.046;13.692;2023-06-10T00:14:39;19.60;99.90
70820;DHT22;58439;51.046;13.692;2023-06-10T00:17:18;19.60;99.90
70820;DHT22;58439;51.046;13.692;2023-06-10T00:19:48;19.50;99.90
70820;DHT22;58439;51.046;13.692;2023-06-10T00:22:17;19.50;99.90
70820;DHT22;58439;51.046;13.692;2023-06-10T00:24:46;19.40;99.90
70820;DHT22;58439;51.046;13.692;2023-06-10T00:27:18;19.30;99.90
70820;DHT22;58439;51.046;13.692;2023-06-10T00:29:45;19.30;99.90
70820;DHT22;58439;51.046;13.692;2023-06-10T00:32:12;19.40;99.90
70820;DHT22;58439;51.046;13.692;2023-06-10T00:34:39;19.30;99.90
70820;DHT22;58439;51.046;13.692;2023-06-10T00:37:06;19.30;99.90
70820;DHT22;58439;51.046;13.692;2023-06-10T00:39:36;19.30;99.90
70820;DHT22;58439;51.046;13.692;2023-06-10T00:42:04;19.30;99.90
70820;DHT22;58439;51.046;13.692;2023-06-10T00:44:38;19.30;99.90
70820;DHT22;58439;51.046;13.692;2023-06-10T00:47:05;19.20;99.90
70820;DHT22;58439;51.046;13.692;2023-06-10T00:49:36;19.10;99.90
70820;DHT22;58439;51.046;13.692;2023-06-10T00:52:07;19.10;99.90
70820;DHT22;58439;51.046;13.692;2023-06-10T00:54:40;19.10;99.90
70820;DHT22;58439;51.046;13.692;2023-06-10T00:57:08;19.00;99.90
70820;DHT22;58439;51.046;13.692;2023-06-10T00:59:38;19.00;99.90
70820;DHT22;58439;51.046;13.692;2023-06-10T01:02:07;19.00;99.90
70820;DHT22;58439;51.046;13.692;2023-06-10T01:04:38;19.00;99.90
70820;DHT22;58439;51.046;13.692;2023-06-10T01:07:28;19.00;99.90
70820;DHT22;58439;51.046;13.692;2023-06-10T01:10:17;18.90;99.90
70820;DHT22;58439;51.046;13.692;2023-06-10T01:15:34;18.80;99.90
70820;DHT22;58439;51.046;13.692;2023-06-10T01:18:09;18.80;99.90
70820;DHT22;58439;51.046;13.692;2023-06-10T01:20:45;18.80;99.90
70820;DHT22;58439;51.046;13.692;2023-06-10T01:23:20;18.80;99.90
70820;DHT22;58439;51.046;13.692;2023-06-10T01:25:55;18.80;99.90
70820;DHT22;58439;51.046;13.692;2023-06-10T01:28:38;18.70;99.90
70820;DHT22;58439;51.046;13.692;2023-06-10T01:31:26;18.50;99.90
70820;DHT22;58439;51.046;13.692;2023-06-10T01:34:01;18.40;99.90
70820;DHT22;58439;51.046;13.692;2023-06-10T01:36:38;18.30;99.90
70820;DHT22;58439;51.046;13.692;2023-06-10T01:39:08;18.30;99.90
70820;DHT22;58439;51.046;13.692;2023-06-10T01:41:38;18.30;99.90
70820;DHT22;58439;51.046;13.692;2023-06-10T01:44:07;18.20;99.90
70820;DHT22;58439;51.046;13.692;2023-06-10T01:46:36;18.10;99.90
70820;DHT22;58439;51.046;13.692;2023-06-10T01:49:03;18.20;99.90
70820;DHT22;58439;51.046;13.692;2023-06-10T01:51:31;18.10;99.90
70820;DHT22;58439;51.046;13.692;2023-06-10T01:53:59;18.10;99.90
70820;DHT22;58439;51.046;13.692;2023-06-10T01:56:27;18.00;99.90
70820;DHT22;58439;51.046;13.692;2023-06-10T01:58:55;18.10;99.90
70820;DHT22;58439;51.046;13.692;2023-06-10T02:01:26;18.10;99.90
70820;DHT22;58439;51.046;13.692;2023-06-10T02:03:55;18.00;99.90
70820;DHT22;58439;51.046;13.692;2023-06-10T02:06:23;18.00;99.90
70820;DHT22;58439;51.046;13.692;2023-06-10T02:08:53;18.00;99.90
70820;DHT22;58439;51.046;13.692;2023-06-10T02:11:21;18.00;99.90
70820;DHT22;58439;51.046;13.692;2023-06-10T02:13:53;17.90;99.90
70820;DHT22;58439;51.046;13.692;2023-06-10T02:16:26;17.90;99.90
70820;DHT22;58439;51.046;13.692;2023-06-10T02:18:54;17.90;99.90
70820;DHT22;58439;51.046;13.692;2023-06-10T02:21:23;17.80;99.90
70820;DHT22;58439;51.046;13.692;2023-06-10T02:23:50;17.80;99.90
70820;DHT22;58439;51.046;13.692;2023-06-10T02:26:17;17.80;99.90
70820;DHT22;58439;51.046;13.692;2023-06-10T02:28:44;17.70;99.90
70820;DHT22;58439;51.046;13.692;2023-06-10T02:31:13;17.70;99.90
70820;DHT22;58439;51.046;13.692;2023-06-10T02:33:41;17.60;99.90
70820;DHT22;58439;51.046;13.692;2023-06-10T02:36:09;17.60;99.90
70820;DHT22;58439;51.046;13.692;2023-06-10T02:38:40;17.60;99.90
70820;DHT22;58439;51.046;13.692;2023-06-10T02:41:07;17.50;99.90
70820;DHT22;58439;51.046;13.692;2023-06-10T02:43:42;17.50;99.90
70820;DHT22;58439;51.046;13.692;2023-06-10T02:46:11;17.40;99.90
70820;DHT22;58439;51.046;13.692;2023-06-10T02:48:43;17.40;99.90
70820;DHT22;58439;51.046;13.692;2023-06-10T02:51:23;17.30;99.90
70820;DHT22;58439;51.046;13.692;2023-06-10T02:53:57;17.30;99.90
70820;DHT22;58439;51.046;13.692;2023-06-10T02:56:31;17.30;99.90
70820;DHT22;58439;51.046;13.692;2023-06-10T02:59:17;17.30;99.90
70820;DHT22;58439;51.046;13.692;2023-06-10T03:01:46;17.20;99.90
70820;DHT22;58439;51.046;13.692;2023-06-10T03:04:13;17.20;99.90
70820;DHT22;58439;51.046;13.692;2023-06-10T03:06:49;17.20;99.90
70820;DHT22;58439;51.046;13.692;2023-06-10T03:09:22;17.10;99.90
70820;DHT22;58439;51.046;13.692;2023-06-10T03:11:53;17.10;99.90
70820;DHT22;58439;51.046;13.692;2023-06-10T03:14:21;17.10;99.90
70820;DHT22;58439;51.046;13.692;2023-06-10T03:16:48;17.00;99.90
70820;DHT22;58439;51.046;13.692;2023-06-10T03:19:15;17.00;99.90
70820;DHT22;58439;51.046;13.692;2023-06-10T03:21:57;17.00;99.90
70820;DHT22;58439;51.046;13.692;2023-06-10T03:24:36;16.90;99.90
70820;DHT22;58439;51.046;13.692;2023-06-10T03:27:05;16.80;99.90
70820;DHT22;58439;51.046;13.692;2023-06-10T03:29:38;16.90;99.90
70820;DHT22;58439;51.046;13.692;2023-06-10T03:32:07;16.90;99.90
70820;DHT22;58439;51.046;13.692;2023-06-10T03:34:36;17.10;99.90
70820;DHT22;58439;51.046;13.692;2023-06-10T03:37:04;17.10;99.90
70820;DHT22;58439;51.046;13.692;2023-06-10T03:39:32;17.10;99.90
70820;DHT22;58439;51.046;13.692;2023-06-10T03:42:01;17.20;99.90
70820;DHT22;58439;51.046;13.692;2023-06-10T03:44:30;17.20;99.90
70820;DHT22;58439;51.046;13.692;2023-06-10T03:46:57;17.20;99.90
70820;DHT22;58439;51.046;13.692;2023-06-10T03:49:25;17.20;99.90
70820;DHT22;58439;51.046;13.692;2023-06-10T03:51:59;17.20;99.90
70820;DHT22;58439;51.046;13.692;2023-06-10T03:54:29;17.20;99.90
70820;DHT22;58439;51.046;13.692;2023-06-10T03:56:59;17.20;99.90
70820;DHT22;58439;51.046;13.692;2023-06-10T03:59:26;17.20;99.90
70820;DHT22;58439;51.046;13.692;2023-06-10T04:01:53;17.20;99.90
70820;DHT22;58439;51.046;13.692;2023-06-10T04:04:20;17.30;99.90
70820;DHT22;58439;51.046;13.692;2023-06-10T04:06:47;17.40;99.90
70820;DHT22;58439;51.046;13.692;2023-06-10T04:09:15;17.50;99.90
70820;DHT22;58439;51.046;13.692;2023-06-10T04:11:45;17.50;99.90
70820;DHT22;58439;51.046;13.692;2023-06-10T04:14:12;17.60;99.90
70820;DHT22;58439;51.046;13.692;2023-06-10T04:16:41;17.60;99.90
70820;DHT22;58439;51.046;13.692;2023-06-10T04:19:10;17.60;99.90
70820;DHT22;58439;51.046;13.692;2023-06-10T04:21:37;17.60;99.90
70820;DHT22;58439;51.046;13.692;2023-06-10T04:24:05;17.60;99.90
70820;DHT22;58439;51.046;13.692;2023-06-10T04:26:34;17.60;99.90
70820;DHT22;58439;51.046;13.692;2023-06-10T04:29:04;17.70;99.90
70820;DHT22;58439;51.046;13.692;2023-06-10T04:31:31;17.70;99.90
70820;DHT22;58439;51.046;13.692;2023-06-10T04:33:59;17.80;99.90
70820;DHT22;58439;51.046;13.692;2023-06-10T04:36:29;17.80;99.90
70820;DHT22;58439;51.046;13.692;2023-06-10T04:38:56;17.80;99.90
70820;DHT22;58439;51.046;13.692;2023-06-10T04:41:24;17.90;99.90
70820;DHT22;58439;51.046;13.692;2023-06-10T04:43:52;18.00;99.90
70820;DHT22;58439;51.046;13.692;2023-06-10T04:46:20;18.10;99.90
70820;DHT22;58439;51.046;13.692;2023-06-10T04:48:47;18.20;99.90
70820;DHT22;58439;51.046;13.692;2023-06-10T04:51:15;18.30;99.90
70820;DHT22;58439;51.046;13.692;2023-06-10T04:53:48;18.40;99.90
70820;DHT22;58439;51.046;13.692;2023-06-10T04:56:15;18.40;99.90
70820;DHT22;58439;51.046;13.692;2023-06-10T04:58:45;18.40;99.90
70820;DHT22;58439;51.046;13.692;2023-06-10T05:01:12;18.50;99.90
70820;DHT22;58439;51.046;13.692;2023-06-10T05:03:40;18.50;99.90
70820;DHT22;58439;51.046;13.692;2023-06-10T05:06:07;18.60;99.90
70820;DHT22;58439;51.046;13.692;2023-06-10T05:08:34;18.70;99.90
70820;DHT22;58439;51.046;13.692;2023-06-10T05:11:01;18.70;99.90
70820;DHT22;58439;51.046;13.692;2023-06-10T05:13:29;18.80;99.90
70820;DHT22;58439;51.046;13.692;2023-06-10T05:15:59;18.90;99.90
70820;DHT22;58439;51.046;13.692;2023-06-10T05:18:26;18.90;99.90
70820;DHT22;58439;51.046;13.692;2023-06-10T05:20:53;18.90;99.90
70820;DHT22;58439;51.046;13.692;2023-06-10T05:23:23;19.00;99.90
70820;DHT22;58439;51.046;13.692;2023-06-10T05:25:53;19.10;99.90
70820;DHT22;58439;51.046;13.692;2023-06-10T05:28:20;19.20;99.90
70820;DHT22;58439;51.046;13.692;2023-06-10T05:30:47;19.30;99.40
70820;DHT22;58439;51.046;13.692;2023-06-10T05:33:14;19.40;99.10
70820;DHT22;58439;51.046;13.692;2023-06-10T05:35:41;19.40;98.90
70820;DHT22;58439;51.046;13.692;2023-06-10T05:38:09;19.30;98.50
70820;DHT22;58439;51.046;13.692;2023-06-10T05:40:36;19.20;98.60
70820;DHT22;58439;51.046;13.692;2023-06-10T05:43:03;19.10;98.80
70820;DHT22;58439;51.046;13.692;2023-06-10T05:45:30;19.10;99.00
70820;DHT22;58439;51.046;13.692;2023-06-10T05:47:57;19.10;99.30
70820;DHT22;58439;51.046;13.692;2023-06-10T05:50:24;19.30;99.40
70820;DHT22;58439;51.046;13.692;2023-06-10T05:52:51;19.50;98.90
70820;DHT22;58439;51.046;13.692;2023-06-10T05:55:20;19.60;98.10
70820;DHT22;58439;51.046;13.692;2023-06-10T05:57:58;19.80;97.70
70820;DHT22;58439;51.046;13.692;2023-06-10T06:00:27;19.90;97.20
70820;DHT22;58439;51.046;13.692;2023-06-10T06:02:54;20.00;96.20
70820;DHT22;58439;51.046;13.692;2023-06-10T06:05:22;20.00;96.20
70820;DHT22;58439;51.046;13.692;2023-06-10T06:07:49;20.20;95.90
70820;DHT22;58439;51.046;13.692;2023-06-10T06:10:17;20.20;95.40
70820;DHT22;58439;51.046;13.692;2023-06-10T06:12:45;20.30;95.50
70820;DHT22;58439;51.046;13.692;2023-06-10T06:15:12;20.30;95.10
70820;DHT22;58439;51.046;13.692;2023-06-10T06:17:40;20.40;95.00
70820;DHT22;58439;51.046;13.692;2023-06-10T06:20:09;20.50;94.70
70820;DHT22;58439;51.046;13.692;2023-06-10T06:22:36;20.50;94.20
70820;DHT22;58439;51.046;13.692;2023-06-10T06:25:04;20.60;94.10
70820;DHT22;58439;51.046;13.692;2023-06-10T06:27:32;20.60;93.40
70820;DHT22;58439;51.046;13.692;2023-06-10T06:30:00;20.70;93.30
70820;DHT22;58439;51.046;13.692;2023-06-10T06:32:27;20.80;92.70
70820;DHT22;58439;51.046;13.692;2023-06-10T06:34:57;20.90;92.50
70820;DHT22;58439;51.046;13.692;2023-06-10T06:37:25;21.00;92.50
70820;DHT22;58439;51.046;13.692;2023-06-10T06:40:07;21.10;92.30
70820;DHT22;58439;51.046;13.692;2023-06-10T06:42:34;21.20;92.10
70820;DHT22;58439;51.046;13.692;2023-06-10T06:45:16;21.30;91.50
70820;DHT22;58439;51.046;13.692;2023-06-10T06:47:43;21.40;90.80
70820;DHT22;58439;51.046;13.692;2023-06-10T06:50:10;21.40;90.00
70820;DHT22;58439;51.046;13.692;2023-06-10T06:52:38;21.40;90.00
70820;DHT22;58439;51.046;13.692;2023-06-10T06:55:05;21.30;90.30
70820;DHT22;58439;51.046;13.692;2023-06-10T06:57:33;21.20;90.40
70820;DHT22;58439;51.046;13.692;2023-06-10T07:00:00;21.10;90.70
70820;DHT22;58439;51.046;13.692;2023-06-10T07:02:27;21.10;91.00
70820;DHT22;58439;51.046;13.692;2023-06-10T07:04:54;21.20;91.20
70820;DHT22;58439;51.046;13.692;2023-06-10T07:07:22;21.30;90.80
70820;DHT22;58439;51.046;13.692;2023-06-10T07:09:50;21.30;90.10
70820;DHT22;58439;51.046;13.692;2023-06-10T07:12:17;21.40;90.30
70820;DHT22;58439;51.046;13.692;2023-06-10T07:14:45;21.60;90.00
70820;DHT22;58439;51.046;13.692;2023-06-10T07:17:12;21.80;89.10
70820;DHT22;58439;51.046;13.692;2023-06-10T07:19:40;22.00;87.50
70820;DHT22;58439;51.046;13.692;2023-06-10T07:22:07;22.20;85.30
70820;DHT22;58439;51.046;13.692;2023-06-10T07:24:35;22.30;84.40
70820;DHT22;58439;51.046;13.692;2023-06-10T07:27:02;22.40;83.30
70820;DHT22;58439;51.046;13.692;2023-06-10T07:29:29;22.50;82.40
70820;DHT22;58439;51.046;13.692;2023-06-10T07:31:56;22.50;81.10
70820;DHT22;58439;51.046;13.692;2023-06-10T07:34:24;22.60;80.80
70820;DHT22;58439;51.046;13.692;2023-06-10T07:36:51;22.70;79.90
70820;DHT22;58439;51.046;13.692;2023-06-10T07:39:18;22.80;79.50
70820;DHT22;58439;51.046;13.692;2023-06-10T07:41:45;22.80;79.60
70820;DHT22;58439;51.046;13.692;2023-06-10T07:44:12;22.90;79.70
70820;DHT22;58439;51.046;13.692;2023-06-10T07:46:39;22.90;80.10
70820;DHT22;58439;51.046;13.692;2023-06-10T07:49:06;22.90;80.50
70820;DHT22;58439;51.046;13.692;2023-06-10T07:51:33;22.80;80.60
70820;DHT22;58439;51.046;13.692;2023-06-10T07:54:01;22.80;80.00
70820;DHT22;58439;51.046;13.692;2023-06-10T07:56:28;22.90;78.70
70820;DHT22;58439;51.046;13.692;2023-06-10T07:58:55;23.00;78.30
70820;DHT22;58439;51.046;13.692;2023-06-10T08:01:23;23.10;77.50
70820;DHT22;58439;51.046;13.692;2023-06-10T08:03:51;23.20;76.60
70820;DHT22;58439;51.046;13.692;2023-06-10T08:06:18;23.30;75.70
70820;DHT22;58439;51.046;13.692;2023-06-10T08:08:45;23.30;73.70
70820;DHT22;58439;51.046;13.692;2023-06-10T08:11:13;23.30;72.60
70820;DHT22;58439;51.046;13.692;2023-06-10T08:13:41;23.40;74.10
70820;DHT22;58439;51.046;13.692;2023-06-10T08:16:08;23.50;73.80
70820;DHT22;58439;51.046;13.692;2023-06-10T08:18:35;23.60;72.50
70820;DHT22;58439;51.046;13.692;2023-06-10T08:21:02;23.80;71.00
70820;DHT22;58439;51.046;13.692;2023-06-10T08:23:29;23.90;70.40
70820;DHT22;58439;51.046;13.692;2023-06-10T08:25:56;24.10;68.30
70820;DHT22;58439;51.046;13.692;2023-06-10T08:28:25;24.30;66.50
70820;DHT22;58439;51.046;13.692;2023-06-10T08:30:52;24.30;65.20
70820;DHT22;58439;51.046;13.692;2023-06-10T08:33:23;24.30;64.90
70820;DHT22;58439;51.046;13.692;2023-06-10T08:35:50;24.30;64.60
70820;DHT22;58439;51.046;13.692;2023-06-10T08:38:17;24.30;64.80
70820;DHT22;58439;51.046;13.692;2023-06-10T08:40:44;24.50;64.50
70820;DHT22;58439;51.046;13.692;2023-06-10T08:43:36;24.50;63.40
70820;DHT22;58439;51.046;13.692;2023-06-10T08:46:09;24.50;62.90
70820;DHT22;58439;51.046;13.692;2023-06-10T08:48:43;24.50;62.20
70820;DHT22;58439;51.046;13.692;2023-06-10T08:51:11;24.50;62.20
70820;DHT22;58439;51.046;13.692;2023-06-10T08:53:52;24.50;62.10
70820;DHT22;58439;51.046;13.692;2023-06-10T08:56:25;24.50;62.40
70820;DHT22;58439;51.046;13.692;2023-06-10T08:58:54;24.70;60.70
70820;DHT22;58439;51.046;13.692;2023-06-10T09:01:24;24.70;60.60
70820;DHT22;58439;51.046;13.692;2023-06-10T09:03:53;25.00;59.70
70820;DHT22;58439;51.046;13.692;2023-06-10T09:06:22;25.30;56.00
70820;DHT22;58439;51.046;13.692;2023-06-10T09:08:50;25.60;55.10
70820;DHT22;58439;51.046;13.692;2023-06-10T09:11:17;25.80;51.30
70820;DHT22;58439;51.046;13.692;2023-06-10T09:13:45;25.90;49.50
70820;DHT22;58439;51.046;13.692;2023-06-10T09:16:12;26.00;48.80
70820;DHT22;58439;51.046;13.692;2023-06-10T09:18:40;26.00;48.20
70820;DHT22;58439;51.046;13.692;2023-06-10T09:21:07;26.00;48.50
70820;DHT22;58439;51.046;13.692;2023-06-10T09:23:35;26.00;48.90
70820;DHT22;58439;51.046;13.692;2023-06-10T09:26:08;26.00;47.50
70820;DHT22;58439;51.046;13.692;2023-06-10T09:28:38;25.90;46.20
70820;DHT22;58439;51.046;13.692;2023-06-10T09:31:10;25.70;46.60
70820;DHT22;58439;51.046;13.692;2023-06-10T09:33:39;25.70;46.90
70820;DHT22;58439;51.046;13.692;2023-06-10T09:36:07;25.70;46.00
70820;DHT22;58439;51.046;13.692;2023-06-10T09:38:35;25.70;45.00
70820;DHT22;58439;51.046;13.692;2023-06-10T09:41:03;25.80;46.40
70820;DHT22;58439;51.046;13.692;2023-06-10T09:43:39;25.90;44.90
70820;DHT22;58439;51.046;13.692;2023-06-10T09:46:13;25.90;44.60
70820;DHT22;58439;51.046;13.692;2023-06-10T09:48:43;25.90;44.60
70820;DHT22;58439;51.046;13.692;2023-06-10T09:51:13;26.00;44.90
70820;DHT22;58439;51.046;13.692;2023-06-10T09:53:41;26.10;43.00
70820;DHT22;58439;51.046;13.692;2023-06-10T09:56:08;26.10;42.10
70820;DHT22;58439;51.046;13.692;2023-06-10T09:58:38;26.20;42.60
70820;DHT22;58439;51.046;13.692;2023-06-10T10:01:10;26.40;42.80
70820;DHT22;58439;51.046;13.692;2023-06-10T10:03:46;26.50;42.10
70820;DHT22;58439;51.046;13.692;2023-06-10T10:06:17;26.50;41.40
70820;DHT22;58439;51.046;13.692;2023-06-10T10:08:47;26.60;41.50
70820;DHT22;58439;51.046;13.692;2023-06-10T10:11:20;26.60;41.10
70820;DHT22;58439;51.046;13.692;2023-06-10T10:13:53;26.70;41.30
70820;DHT22;58439;51.046;13.692;2023-06-10T10:16:30;26.90;41.50
70820;DHT22;58439;51.046;13.692;2023-06-10T10:19:28;26.90;41.10
70820;DHT22;58439;51.046;13.692;2023-06-10T10:22:04;26.90;40.90
70820;DHT22;58439;51.046;13.692;2023-06-10T10:24:43;26.90;40.70
70820;DHT22;58439;51.046;13.692;2023-06-10T10:27:35;27.20;40.80
70820;DHT22;58439;51.046;13.692;2023-06-10T10:30:10;27.50;40.00
70820;DHT22;58439;51.046;13.692;2023-06-10T10:32:43;27.30;39.40
70820;DHT22;58439;51.046;13.692;2023-06-10T10:35:23;27.00;39.90
70820;DHT22;58439;51.046;13.692;2023-06-10T10:37:53;26.70;40.60
70820;DHT22;58439;51.046;13.692;2023-06-10T10:40:22;26.50;41.20
70820;DHT22;58439;51.046;13.692;2023-06-10T10:42:52;26.40;42.00
70820;DHT22;58439;51.046;13.692;2023-06-10T10:45:21;26.50;42.10
70820;DHT22;58439;51.046;13.692;2023-06-10T10:47:53;26.60;41.90
70820;DHT22;58439;51.046;13.692;2023-06-10T10:50:22;26.70;42.10
70820;DHT22;58439;51.046;13.692;2023-06-10T10:53:01;26.90;42.00
70820;DHT22;58439;51.046;13.692;2023-06-10T10:55:30;27.10;41.00
70820;DHT22;58439;51.046;13.692;2023-06-10T10:58:06;27.20;39.00
70820;DHT22;58439;51.046;13.692;2023-06-10T11:00:43;27.20;38.60
70820;DHT22;58439;51.046;13.692;2023-06-10T11:03:15;27.20;38.70
70820;DHT22;58439;51.046;13.692;2023-06-10T11:05:48;27.50;39.30
70820;DHT22;58439;51.046;13.692;2023-06-10T11:08:50;27.80;37.70
70820;DHT22;58439;51.046;13.692;2023-06-10T11:11:27;27.60;36.90
70820;DHT22;58439;51.046;13.692;2023-06-10T11:16:29;28.10;37.50
70820;DHT22;58439;51.046;13.692;2023-06-10T11:18:56;28.70;37.00
70820;DHT22;58439;51.046;13.692;2023-06-10T11:21:24;28.90;36.10
70820;DHT22;58439;51.046;13.692;2023-06-10T11:23:58;29.20;35.50
70820;DHT22;58439;51.046;13.692;2023-06-10T11:29:06;30.60;31.60
70820;DHT22;58439;51.046;13.692;2023-06-10T11:31:42;31.40;30.40
70820;DHT22;58439;51.046;13.692;2023-06-10T11:34:12;32.10;29.00
70820;DHT22;58439;51.046;13.692;2023-06-10T11:36:43;32.70;27.70
70820;DHT22;58439;51.046;13.692;2023-06-10T11:39:12;32.70;26.60
70820;DHT22;58439;51.046;13.692;2023-06-10T11:41:40;32.00;26.50
70820;DHT22;58439;51.046;13.692;2023-06-10T11:44:09;31.00;27.40
70820;DHT22;58439;51.046;13.692;2023-06-10T11:46:38;30.00;28.80
70820;DHT22;58439;51.046;13.692;2023-06-10T11:49:06;29.40;29.90
70820;DHT22;58439;51.046;13.692;2023-06-10T11:51:42;29.40;30.60
70820;DHT22;58439;51.046;13.692;2023-06-10T11:54:17;30.20;29.70
70820;DHT22;58439;51.046;13.692;2023-06-10T11:56:44;30.90;28.90
70820;DHT22;58439;51.046;13.692;2023-06-10T11:59:13;31.60;27.10
70820;DHT22;58439;51.046;13.692;2023-06-10T12:01:44;32.10;26.60
70820;DHT22;58439;51.046;13.692;2023-06-10T12:04:15;32.60;26.40
70820;DHT22;58439;51.046;13.692;2023-06-10T12:06:49;32.50;26.20
70820;DHT22;58439;51.046;13.692;2023-06-10T12:09:18;32.50;26.60
70820;DHT22;58439;51.046;13.692;2023-06-10T12:11:59;32.00;26.00
70820;DHT22;58439;51.046;13.692;2023-06-10T12:14:59;31.90;26.30
70820;DHT22;58439;51.046;13.692;2023-06-10T12:20:01;32.90;25.20
70820;DHT22;58439;51.046;13.692;2023-06-10T12:22:41;33.60;23.20
70820;DHT22;58439;51.046;13.692;2023-06-10T12:25:10;33.90;22.50
70820;DHT22;58439;51.046;13.692;2023-06-10T12:27:41;34.00;22.60
70820;DHT22;58439;51.046;13.692;2023-06-10T12:30:23;34.30;22.40
70820;DHT22;58439;51.046;13.692;2023-06-10T12:32:52;34.50;22.20
70820;DHT22;58439;51.046;13.692;2023-06-10T12:35:24;34.50;21.90
70820;DHT22;58439;51.046;13.692;2023-06-10T12:37:57;34.20;22.20
70820;DHT22;58439;51.046;13.692;2023-06-10T12:40:32;34.20;22.40
70820;DHT22;58439;51.046;13.692;2023-06-10T12:43:00;34.50;22.30
70820;DHT22;58439;51.046;13.692;2023-06-10T12:48:18;35.00;21.80
70820;DHT22;58439;51.046;13.692;2023-06-10T12:50:52;35.10;21.50
70820;DHT22;58439;51.046;13.692;2023-06-10T12:53:21;35.20;21.20
70820;DHT22;58439;51.046;13.692;2023-06-10T12:55:53;35.10;20.50
70820;DHT22;58439;51.046;13.692;2023-06-10T12:58:21;35.00;20.20
70820;DHT22;58439;51.046;13.692;2023-06-10T13:00:50;34.90;20.00
70820;DHT22;58439;51.046;13.692;2023-06-10T13:03:20;34.90;19.40
70820;DHT22;58439;51.046;13.692;2023-06-10T13:05:47;34.60;20.10
70820;DHT22;58439;51.046;13.692;2023-06-10T13:08:15;34.80;20.30
70820;DHT22;58439;51.046;13.692;2023-06-10T13:10:42;35.00;20.10
70820;DHT22;58439;51.046;13.692;2023-06-10T13:13:09;35.10;19.90
70820;DHT22;58439;51.046;13.692;2023-06-10T13:15:37;35.10;20.20
70820;DHT22;58439;51.046;13.692;2023-06-10T13:18:09;34.90;20.30
70820;DHT22;58439;51.046;13.692;2023-06-10T13:20:36;34.90;20.60
70820;DHT22;58439;51.046;13.692;2023-06-10T13:23:03;34.90;20.50
70820;DHT22;58439;51.046;13.692;2023-06-10T13:25:30;35.10;20.10
70820;DHT22;58439;51.046;13.692;2023-06-10T13:27:59;35.30;19.50
70820;DHT22;58439;51.046;13.692;2023-06-10T13:30:26;35.50;17.90
70820;DHT22;58439;51.046;13.692;2023-06-10T13:32:53;35.40;18.10
70820;DHT22;58439;51.046;13.692;2023-06-10T13:35:20;35.20;18.30
70820;DHT22;58439;51.046;13.692;2023-06-10T13:37:47;35.10;19.60
70820;DHT22;58439;51.046;13.692;2023-06-10T13:40:14;35.10;19.10
70820;DHT22;58439;51.046;13.692;2023-06-10T13:42:43;35.00;19.30
70820;DHT22;58439;51.046;13.692;2023-06-10T13:45:10;35.20;19.20
70820;DHT22;58439;51.046;13.692;2023-06-10T13:47:37;35.70;18.80
70820;DHT22;58439;51.046;13.692;2023-06-10T13:50:06;35.70;18.80
70820;DHT22;58439;51.046;13.692;2023-06-10T13:52:34;35.50;18.20
70820;DHT22;58439;51.046;13.692;2023-06-10T13:55:01;35.30;18.40
70820;DHT22;58439;51.046;13.692;2023-06-10T13:57:28;35.50;18.70
70820;DHT22;58439;51.046;13.692;2023-06-10T13:59:56;35.80;18.80
70820;DHT22;58439;51.046;13.692;2023-06-10T14:02:23;35.80;16.50
70820;DHT22;58439;51.046;13.692;2023-06-10T14:04:51;35.60;16.30
70820;DHT22;58439;51.046;13.692;2023-06-10T14:07:18;35.60;16.40
70820;DHT22;58439;51.046;13.692;2023-06-10T14:09:45;35.70;16.10
70820;DHT22;58439;51.046;13.692;2023-06-10T14:12:13;35.40;15.90
70820;DHT22;58439;51.046;13.692;2023-06-10T14:14:40;34.40;15.60
70820;DHT22;58439;51.046;13.692;2023-06-10T14:17:07;34.10;16.00
70820;DHT22;58439;51.046;13.692;2023-06-10T14:19:34;34.30;15.80
70820;DHT22;58439;51.046;13.692;2023-06-10T14:22:02;34.40;16.20
70820;DHT22;58439;51.046;13.692;2023-06-10T14:24:34;34.60;16.50
70820;DHT22;58439;51.046;13.692;2023-06-10T14:27:02;34.70;16.90
70820;DHT22;58439;51.046;13.692;2023-06-10T14:29:30;34.90;16.70
70820;DHT22;58439;51.046;13.692;2023-06-10T14:31:58;35.00;16.60
70820;DHT22;58439;51.046;13.692;2023-06-10T14:34:26;35.30;16.90
70820;DHT22;58439;51.046;13.692;2023-06-10T14:36:56;35.30;16.00
70820;DHT22;58439;51.046;13.692;2023-06-10T14:39:23;35.30;16.20
70820;DHT22;58439;51.046;13.692;2023-06-10T14:41:50;35.30;16.50
70820;DHT22;58439;51.046;13.692;2023-06-10T14:44:19;35.60;16.30
70820;DHT22;58439;51.046;13.692;2023-06-10T14:46:46;35.70;16.20
70820;DHT22;58439;51.046;13.692;2023-06-10T14:49:14;35.60;16.00
70820;DHT22;58439;51.046;13.692;2023-06-10T14:51:42;35.60;15.10
70820;DHT22;58439;51.046;13.692;2023-06-10T14:54:09;35.60;14.80
70820;DHT22;58439;51.046;13.692;2023-06-10T14:56:36;35.40;15.30
70820;DHT22;58439;51.046;13.692;2023-06-10T14:59:03;35.10;15.80
70820;DHT22;58439;51.046;13.692;2023-06-10T15:01:31;34.80;15.80
70820;DHT22;58439;51.046;13.692;2023-06-10T15:03:58;34.70;15.80
70820;DHT22;58439;51.046;13.692;2023-06-10T15:06:26;34.70;15.70
70820;DHT22;58439;51.046;13.692;2023-06-10T15:08:53;34.80;15.70
70820;DHT22;58439;51.046;13.692;2023-06-10T15:11:20;34.80;15.90
70820;DHT22;58439;51.046;13.692;2023-06-10T15:13:47;35.20;16.00
70820;DHT22;58439;51.046;13.692;2023-06-10T15:16:16;35.20;15.80
70820;DHT22;58439;51.046;13.692;2023-06-10T15:18:43;35.50;15.80
70820;DHT22;58439;51.046;13.692;2023-06-10T15:21:10;35.50;15.90
70820;DHT22;58439;51.046;13.692;2023-06-10T15:23:37;35.40;15.90
70820;DHT22;58439;51.046;13.692;2023-06-10T15:26:04;35.40;16.40
70820;DHT22;58439;51.046;13.692;2023-06-10T15:28:31;35.30;16.70
70820;DHT22;58439;51.046;13.692;2023-06-10T15:30:58;35.00;17.00
70820;DHT22;58439;51.046;13.692;2023-06-10T15:33:25;35.10;17.30
70820;DHT22;58439;51.046;13.692;2023-06-10T15:35:52;35.20;17.40
70820;DHT22;58439;51.046;13.692;2023-06-10T15:38:22;35.30;17.20
70820;DHT22;58439;51.046;13.692;2023-06-10T15:40:49;35.30;17.60
70820;DHT22;58439;51.046;13.692;2023-06-10T15:43:16;35.40;17.40
70820;DHT22;58439;51.046;13.692;2023-06-10T15:45:43;35.10;17.50